Time,TemperatureF,DewpointF,PressureIn,WindDirection,WindDirectionDegrees,WindSpeedMPH,WindSpeedGustMPH,Humidity,HourlyPrecipIn,Conditions,Clouds,dailyrainin,SolarRadiationWatts/m^2,SoftwareType,DateUTC
2013-10-11 00:04:00,52.0,51.0,-100.00,NW,317,0.0,3.0,96,0.00,,,0.00,0.000000,,2013-10-11 04:04:00,
2013-10-11 00:44:00,50.0,49.0,-100.00,West,268,1.0,3.0,97,0.00,,,0.00,0.000000,,2013-10-11 04:44:00,
2013-10-11 00:53:00,50.0,49.0,-100.00,West,268,1.0,3.0,97,0.00,,,0.00,0.000000,,2013-10-11 04:53:00,
2013-10-11 01:03:00,50.0,49.0,-100.00,West,268,1.0,3.0,97,0.00,,,0.00,0.000000,,2013-10-11 05:03:00,
2013-10-11 01:43:00,49.0,48.0,-100.00,NNE,22,0.0,3.0,97,0.00,,,0.00,0.000000,,2013-10-11 05:43:00,
2013-10-11 01:52:00,49.0,48.0,-100.00,NNE,22,0.0,3.0,97,0.00,,,0.00,0.000000,,2013-10-11 05:52:00,
2013-10-11 02:02:00,49.0,48.0,-100.00,NNE,22,0.0,3.0,97,0.00,,,0.00,0.000000,,2013-10-11 06:02:00,
2013-10-11 02:43:00,48.0,47.0,-100.00,NNW,331,0.0,4.0,98,0.00,,,0.00,0.000000,,2013-10-11 06:43:00,
2013-10-11 02:52:00,48.0,47.0,-100.00,NNW,331,0.0,4.0,98,0.00,,,0.00,0.000000,,2013-10-11 06:52:00,
2013-10-11 03:02:00,48.0,47.0,-100.00,NNW,331,0.0,4.0,98,0.00,,,0.00,0.000000,,2013-10-11 07:02:00,
2013-10-11 03:42:00,47.0,46.0,-100.00,NNW,337,1.0,2.0,98,0.00,,,0.00,0.000000,,2013-10-11 07:42:00,
2013-10-11 03:52:00,47.0,46.0,-100.00,NNW,337,1.0,2.0,98,0.00,,,0.00,0.000000,,2013-10-11 07:52:00,
2013-10-11 04:03:00,47.0,46.0,-100.00,NNW,337,1.0,2.0,98,0.00,,,0.00,0.000000,,2013-10-11 08:03:00,
2013-10-11 04:42:00,46.0,45.0,-100.00,ESE,110,0.0,2.0,98,0.00,,,0.00,0.000000,,2013-10-11 08:42:00,
2013-10-11 04:52:00,46.0,45.0,-100.00,ESE,110,0.0,2.0,98,0.00,,,0.00,0.000000,,2013-10-11 08:52:00,
2013-10-11 05:02:00,46.0,45.0,-100.00,ESE,110,0.0,2.0,98,0.00,,,0.00,0.000000,,2013-10-11 09:02:00,
2013-10-11 05:43:00,47.0,46.0,-100.00,ESE,113,0.0,2.0,98,0.00,,,0.00,0.000000,,2013-10-11 09:43:00,
2013-10-11 05:54:00,47.0,46.0,-100.00,ESE,113,0.0,2.0,98,0.00,,,0.00,0.000000,,2013-10-11 09:54:00,
2013-10-11 06:03:00,47.0,46.0,-100.00,ESE,113,0.0,2.0,98,0.00,,,0.00,0.000000,,2013-10-11 10:03:00,
2013-10-11 06:43:00,47.0,46.0,-100.00,SW,233,2.0,4.0,98,0.00,,,0.00,0.000000,,2013-10-11 10:43:00,
2013-10-11 06:53:00,47.0,46.0,-100.00,SW,233,2.0,4.0,98,0.00,,,0.00,0.000000,,2013-10-11 10:53:00,
2013-10-11 07:02:00,47.0,46.0,-100.00,SW,233,2.0,4.0,98,0.00,,,0.00,0.000000,,2013-10-11 11:02:00,
2013-10-11 07:42:00,48.0,47.0,-100.00,ENE,58,3.0,5.0,98,0.00,,,-99.99,0.000000,,2013-10-11 11:42:00,
2013-10-11 07:52:00,48.0,47.0,-100.00,ENE,58,3.0,5.0,98,0.00,,,-99.99,0.000000,,2013-10-11 11:52:00,
2013-10-11 08:02:00,48.0,47.0,-100.00,ENE,58,3.0,5.0,98,0.00,,,-99.99,0.000000,,2013-10-11 12:02:00,
2013-10-11 08:42:00,48.0,48.0,-100.00,North,358,2.0,4.0,99,0.00,,,-99.99,3.000000,,2013-10-11 12:42:00,
2013-10-11 08:52:00,48.0,48.0,-100.00,North,358,2.0,4.0,99,0.00,,,-99.99,3.000000,,2013-10-11 12:52:00,
2013-10-11 09:02:00,48.0,48.0,-100.00,North,358,2.0,4.0,99,0.00,,,-99.99,3.000000,,2013-10-11 13:02:00,
2013-10-11 09:43:00,49.0,49.0,-100.00,NW,321,2.0,3.0,99,0.00,,,-99.99,42.000000,,2013-10-11 13:43:00,
2013-10-11 09:53:00,49.0,49.0,-100.00,NW,321,2.0,3.0,99,0.00,,,-99.99,42.000000,,2013-10-11 13:53:00,
2013-10-11 10:02:00,49.0,49.0,-100.00,NW,321,2.0,3.0,99,0.00,,,-99.99,42.000000,,2013-10-11 14:02:00,
2013-10-11 10:42:00,51.0,50.0,-100.00,East,92,3.0,6.0,98,0.00,,,-99.99,137.000000,,2013-10-11 14:42:00,
2013-10-11 10:52:00,51.0,50.0,-100.00,East,92,3.0,6.0,98,0.00,,,-99.99,137.000000,,2013-10-11 14:52:00,
2013-10-11 11:02:00,51.0,50.0,-100.00,East,92,3.0,6.0,98,0.00,,,-99.99,137.000000,,2013-10-11 15:02:00,
2013-10-11 11:44:00,54.0,53.0,-100.00,SE,125,2.0,5.0,98,0.00,,,0.00,228.000000,,2013-10-11 15:44:00,
2013-10-11 11:54:00,54.0,53.0,-100.00,SE,125,2.0,5.0,98,0.00,,,0.00,228.000000,,2013-10-11 15:54:00,
2013-10-11 12:04:00,54.0,53.0,-100.00,SE,125,2.0,5.0,98,0.00,,,0.00,228.000000,,2013-10-11 16:04:00,
2013-10-11 12:43:00,64.0,58.0,-100.00,NE,37,3.0,6.0,82,0.00,,,0.00,579.000000,,2013-10-11 16:43:00,
2013-10-11 12:53:00,64.0,58.0,-100.00,NE,37,3.0,6.0,82,0.00,,,0.00,579.000000,,2013-10-11 16:53:00,
2013-10-11 13:03:00,64.0,58.0,-100.00,NE,37,3.0,6.0,82,0.00,,,0.00,579.000000,,2013-10-11 17:03:00,
2013-10-11 13:43:00,71.0,57.0,-100.00,ENE,67,3.0,7.0,61,0.00,,,0.00,618.000000,,2013-10-11 17:43:00,
2013-10-11 13:53:00,71.0,57.0,-100.00,ENE,67,3.0,7.0,61,0.00,,,0.00,618.000000,,2013-10-11 17:53:00,
2013-10-11 14:02:00,71.0,57.0,-100.00,ENE,67,3.0,7.0,61,0.00,,,0.00,618.000000,,2013-10-11 18:02:00,
2013-10-11 14:43:00,75.0,52.0,-100.00,NNW,344,4.0,9.0,44,0.00,,,0.00,683.000000,,2013-10-11 18:43:00,
2013-10-11 14:53:00,75.0,52.0,-100.00,NNW,344,4.0,9.0,44,0.00,,,0.00,683.000000,,2013-10-11 18:53:00,
2013-10-11 15:02:00,75.0,52.0,-100.00,NNW,344,4.0,9.0,44,0.00,,,0.00,683.000000,,2013-10-11 19:02:00,
2013-10-11 15:43:00,76.0,49.0,-100.00,North,357,4.0,11.0,38,0.00,,,0.00,591.000000,,2013-10-11 19:43:00,
2013-10-11 15:52:00,76.0,49.0,-100.00,North,357,4.0,11.0,38,0.00,,,0.00,591.000000,,2013-10-11 19:52:00,
2013-10-11 16:02:00,76.0,49.0,-100.00,North,357,4.0,11.0,38,0.00,,,0.00,591.000000,,2013-10-11 20:02:00,
2013-10-11 16:43:00,76.0,48.0,-100.00,WNW,292,4.0,11.0,37,0.00,,,0.00,506.000000,,2013-10-11 20:43:00,
2013-10-11 16:53:00,76.0,48.0,-100.00,WNW,292,4.0,11.0,37,0.00,,,0.00,506.000000,,2013-10-11 20:53:00,
2013-10-11 17:03:00,76.0,48.0,-100.00,WNW,292,4.0,11.0,37,0.00,,,0.00,506.000000,,2013-10-11 21:03:00,
2013-10-11 17:43:00,75.0,47.0,-100.00,NW,323,5.0,9.0,37,0.00,,,0.00,399.000000,,2013-10-11 21:43:00,
2013-10-11 17:55:00,75.0,47.0,-100.00,NW,323,5.0,9.0,37,0.00,,,0.00,399.000000,,2013-10-11 21:55:00,
2013-10-11 18:04:00,75.0,47.0,-100.00,NW,323,5.0,9.0,37,0.00,,,0.00,399.000000,,2013-10-11 22:04:00,
2013-10-11 18:43:00,72.0,47.0,-100.00,NNW,346,6.0,10.0,41,0.00,,,0.00,231.000000,,2013-10-11 22:43:00,
2013-10-11 18:54:00,72.0,47.0,-100.00,NNW,346,6.0,10.0,41,0.00,,,0.00,231.000000,,2013-10-11 22:54:00,
2013-10-11 19:03:00,72.0,47.0,-100.00,NNW,346,6.0,10.0,41,0.00,,,0.00,231.000000,,2013-10-11 23:03:00,
2013-10-11 19:42:00,68.0,50.0,-100.00,NNW,329,7.0,11.0,52,0.00,,,0.00,60.000000,,2013-10-11 23:42:00,
2013-10-11 19:53:00,68.0,50.0,-100.00,NNW,329,7.0,11.0,52,0.00,,,0.00,60.000000,,2013-10-11 23:53:00,
2013-10-11 20:02:00,68.0,50.0,-100.00,NNW,329,7.0,11.0,52,0.00,,,0.00,60.000000,,2013-10-12 00:02:00,
2013-10-11 20:42:00,66.0,50.0,-100.00,NNW,347,4.0,15.0,57,0.00,,,0.00,0.000000,,2013-10-12 00:42:00,
2013-10-11 20:53:00,66.0,50.0,-100.00,NNW,347,4.0,15.0,57,0.00,,,0.00,0.000000,,2013-10-12 00:53:00,
2013-10-11 21:02:00,66.0,50.0,-100.00,NNW,347,4.0,15.0,57,0.00,,,0.00,0.000000,,2013-10-12 01:02:00,
2013-10-11 21:42:00,61.0,52.0,-100.00,NNW,328,3.0,9.0,72,0.00,,,0.00,0.000000,,2013-10-12 01:42:00,
2013-10-11 21:52:00,61.0,52.0,-100.00,NNW,328,3.0,9.0,72,0.00,,,0.00,0.000000,,2013-10-12 01:52:00,
2013-10-11 22:03:00,61.0,52.0,-100.00,NNW,328,3.0,9.0,72,0.00,,,0.00,0.000000,,2013-10-12 02:03:00,
2013-10-11 22:42:00,54.0,51.0,-100.00,NNW,333,0.0,6.0,90,0.00,,,0.00,0.000000,,2013-10-12 02:42:00,
2013-10-11 22:52:00,54.0,51.0,-100.00,NNW,333,0.0,6.0,90,0.00,,,0.00,0.000000,,2013-10-12 02:52:00,
2013-10-11 23:02:00,54.0,51.0,-100.00,NNW,333,0.0,6.0,90,0.00,,,0.00,0.000000,,2013-10-12 03:02:00,
2013-10-11 23:44:00,52.0,51.0,-100.00,South,191,0.0,3.0,95,0.00,,,0.00,0.000000,,2013-10-12 03:44:00,
2013-10-11 23:54:00,52.0,51.0,-100.00,South,191,0.0,3.0,95,0.00,,,0.00,0.000000,,2013-10-12 03:54:00,